Terminal Aerodrome Forecast
Issued by NWS

Home | Current Version | Previous Version | Text Only | Print | Product List | Glossary On
Versions: 1 2 3 4 5 6 7 8 9 10 11 12 13 14 15 16 17 18 19 20 21 22 23 24 25 26 27 28 29
459
FTUS46 KLOX 042322
TAFLAX
TAF
KLAX 042322Z 0500/0606 27008KT P6SM BKN250
     FM050400 VRB03KT P6SM BKN250
     FM051100 10004KT 1 1/2SM BR BKN003
     FM051500 VRB03KT 5SM BR OVC007
     FM051800 VRB03KT 6SM HZ SCT010
     FM052000 26008KT P6SM FEW012 SCT250
     FM060200 25007KT P6SM BKN012=

USA.gov is the U.S. government's official web portal to all federal, state and local government web resources and services.